Time;durP1;ratioP1;P1;durP2;ratioP2;P2;SDS_P1;SDS_P2;PMS_P1;PMS_P2;Temp;Humidity;BMP_temperature;BMP_pressure;BME280_temperature;BME280_humidity;BME280_pressure;Samples;Min_cycle;Max_cycle;Signal;HPM_P1;HPM_P2
2022/10/01 00:02:39;;;;;;;;;;;;;;;;;;10459752;28;19925;-58
2022/10/01 00:07:41;;;;;;;;;;;;;;;;;;10459701;28;19935;-58
2022/10/01 00:12:44;;;;;;;;;;;;;;;;;;10461585;28;19932;-58
2022/10/01 00:17:46;;;;;;;;;;;;;;;;;;10460817;28;19925;-58
2022/10/01 00:22:49;;;;;;;;;;;;;;;;;;10459178;28;19925;-58
2022/10/01 00:27:51;;;;;;;;;;;;;;;;;;10458199;28;19929;-58
2022/10/01 00:32:53;;;;;;;;;;;;;;;;;;10460182;28;19948;-58
2022/10/01 00:37:56;;;;;;;;;;;;;;;;;;10460661;28;19924;-58
2022/10/01 00:42:58;;;;;;;;;;;;;;;;;;10458224;28;19924;-58
2022/10/01 00:48:00;;;;;;;;;;;;;;;;;;10457674;28;19979;-58
2022/10/01 00:53:02;;;;;;;;;;;;;;;;;;10459330;28;20363;-58
2022/10/01 00:58:04;;;;;;;;;;;;;;;;;;10458006;28;20338;-58
2022/10/01 01:03:06;;;;;;;;;;;;;;;;;;10459011;28;19978;-58
2022/10/01 01:08:08;;;;;;;;;;;;;;;;;;10457217;28;19929;-58
2022/10/01 01:13:11;;;;;;;;;;;;;;;;;;10458537;28;20371;-59
2022/10/01 01:18:13;;;;;;;;;;;;;;;;;;10457044;28;19925;-58
2022/10/01 01:23:15;;;;;;;;;;;;;;;;;;10458254;28;20441;-58
2022/10/01 01:28:17;;;;;;;;;;;;;;;;;;10455871;28;19929;-58
2022/10/01 01:33:19;;;;;;;;;;;;;;;;;;10457829;28;20276;-58
2022/10/01 01:38:21;;;;;;;;;;;;;;;;;;10458354;28;19929;-58
2022/10/01 01:43:23;;;;;;;;;;;;;;;;;;10455374;28;19983;-58
2022/10/01 01:48:25;;;;;;;;;;;;;;;;;;10456304;28;19994;-58
2022/10/01 01:53:29;;;;;;;;;;;;;;;;;;10457785;28;19925;-58
2022/10/01 01:58:31;;;;;;;;;;;;;;;;;;10455495;28;19929;-58
2022/10/01 02:03:33;;;;;;;;;;;;;;;;;;10456967;28;19971;-59
2022/10/01 02:08:35;;;;;;;;;;;;;;;;;;10451098;28;19971;-58
2022/10/01 02:13:37;;;;;;;;;;;;;;;;;;10456658;28;20375;-58
2022/10/01 02:18:39;;;;;;;;;;;;;;;;;;10455972;28;20346;-58
2022/10/01 02:23:41;;;;;;;;;;;;;;;;;;10454237;28;19929;-58
2022/10/01 02:28:44;;;;;;;;;;;;;;;;;;10453075;28;19932;-58
2022/10/01 02:33:46;;;;;;;;;;;;;;;;;;10456257;28;19971;-58
2022/10/01 02:38:49;;;;;;;;;;;;;;;;;;10456234;28;20300;-58
2022/10/01 02:43:52;;;;;;;;;;;;;;;;;;10454256;28;20461;-58
2022/10/01 02:48:54;;;;;;;;;;;;;;;;;;10453795;28;19925;-58
2022/10/01 02:53:56;;;;;;;;;;;;;;;;;;10454777;28;19925;-58
2022/10/01 02:58:58;;;;;;;;;;;;;;;;;;10456505;28;19925;-58
2022/10/01 03:04:01;;;;;;;;;;;;;;;;;;10455794;28;19924;-58
2022/10/01 03:09:03;;;;;;;;;;;;;;;;;;10454306;28;19925;-58
2022/10/01 03:14:05;;;;;;;;;;;;;;;;;;10456137;28;19955;-58
2022/10/01 03:19:07;;;;;;;;;;;;;;;;;;10455513;28;20335;-59
2022/10/01 03:24:09;;;;;;;;;;;;;;;;;;10461099;28;19929;-58
2022/10/01 03:29:12;;;;;;;;;;;;;;;;;;10460671;28;20484;-58
2022/10/01 03:34:14;;;;;;;;;;;;;;;;;;10462488;28;19925;-58
2022/10/01 03:39:16;;;;;;;;;;;;;;;;;;10462997;28;19924;-58
2022/10/01 03:44:18;;;;;;;;;;;;;;;;;;10461437;28;19987;-58
2022/10/01 03:49:20;;;;;;;;;;;;;;;;;;10459679;28;19925;-58
2022/10/01 03:54:22;;;;;;;;;;;;;;;;;;10462315;28;19978;-58
2022/10/01 03:59:26;;;;;;;;;;;;;;;;;;10462137;28;19925;-58
2022/10/01 04:04:28;;;;;;;;;;;;;;;;;;10459395;28;19928;-58
2022/10/01 04:09:30;;;;;;;;;;;;;;;;;;10459600;28;19924;-58
2022/10/01 04:14:32;;;;;;;;;;;;;;;;;;10461661;28;19955;-58
2022/10/01 04:19:34;;;;;;;;;;;;;;;;;;10459208;28;19925;-58
2022/10/01 04:24:36;;;;;;;;;;;;;;;;;;10460599;28;20388;-58
2022/10/01 04:29:40;;;;;;;;;;;;;;;;;;10458140;28;20082;-58
2022/10/01 04:34:51;;;;;;;;;;;;;;;;;;10459379;28;20380;-58
2022/10/01 04:39:53;;;;;;;;;;;;;;;;;;10459516;28;19928;-58
2022/10/01 04:44:56;;;;;;;;;;;;;;;;;;10459661;28;19971;-58
2022/10/01 04:49:58;;;;;;;;;;;;;;;;;;10458041;28;19925;-58
2022/10/01 04:55:00;;;;;;;;;;;;;;;;;;10460126;28;19928;-58
2022/10/01 05:00:04;;;;;;;;;;;;;;;;;;10459887;28;19928;-58
2022/10/01 05:05:06;;;;;;;;;;;;;;;;;;10458966;28;19971;-58
2022/10/01 05:10:08;;;;;;;;;;;;;;;;;;10456577;28;19925;-58
2022/10/01 05:15:10;;;;;;;;;;;;;;;;;;10457858;28;19979;-58
2022/10/01 05:20:12;;;;;;;;;;;;;;;;;;10459024;28;19982;-58
2022/10/01 05:25:15;;;;;;;;;;;;;;;;;;10458814;28;19932;-58
2022/10/01 05:30:21;;;;;;;;;;;;;;;;;;10456336;28;19944;-58
2022/10/01 05:35:23;;;;;;;;;;;;;;;;;;10456538;28;20292;-59
2022/10/01 05:40:26;;;;;;;;;;;;;;;;;;10457471;28;19932;-59
2022/10/01 05:45:28;;;;;;;;;;;;;;;;;;10458358;28;19931;-59
2022/10/01 05:50:31;;;;;;;;;;;;;;;;;;10439030;28;19925;-58
2022/10/01 05:55:36;;;;;;;;;;;;;;;;;;10457333;28;20407;-58
2022/10/01 06:00:38;;;;;;;;;;;;;;;;;;10464302;22;19924;-57
2022/10/01 06:05:40;;;;;;;;;;;;;;;;;;10456352;28;19929;-58
2022/10/01 06:10:42;;;;;;;;;;;;;;;;;;10455025;28;20384;-58
2022/10/01 06:15:44;;;;;;;;;;;;;;;;;;10455354;28;19932;-57
2022/10/01 06:20:46;;;;;;;;;;;;;;;;;;10457253;28;19925;-57
2022/10/01 06:25:48;;;;;;;;;;;;;;;;;;10457170;28;19924;-57
2022/10/01 06:30:50;;;;;;;;;;;;;;;;;;10454755;28;19925;-57
2022/10/01 06:35:52;;;;;;;;;;;;;;;;;;10454890;28;19984;-57
2022/10/01 06:40:54;;;;;;;;;;;;;;;;;;10456874;28;19929;-57
2022/10/01 06:45:56;;;;;;;;;;;;;;;;;;10456148;28;20375;-57
2022/10/01 06:50:59;;;;;;;;;;;;;;;;;;10453423;28;19964;-57
2022/10/01 06:56:01;;;;;;;;;;;;;;;;;;10458485;28;20438;-57
2022/10/01 07:01:03;;;;;;;;;;;;;;;;;;10463709;28;20054;-57
2022/10/01 07:06:07;;;;;;;;;;;;;;;;;;10462830;28;19928;-58
2022/10/01 07:11:09;;;;;;;;;;;;;;;;;;10456249;28;19968;-58
2022/10/01 07:16:11;;;;;;;;;;;;;;;;;;10463437;28;19924;-58
2022/10/01 07:21:13;;;;;;;;;;;;;;;;;;10462372;28;20384;-58
2022/10/01 07:26:15;;;;;;;;;;;;;;;;;;10463601;28;19978;-57
2022/10/01 07:31:17;;;;;;;;;;;;;;;;;;10459696;28;19925;-57
2022/10/01 07:36:19;;;;;;;;;;;;;;;;;;10463118;28;19974;-58
2022/10/01 07:41:21;;;;;;;;;;;;;;;;;;10461388;28;19932;-58
2022/10/01 07:46:23;;;;;;;;;;;;;;;;;;10461009;28;19960;-58
2022/10/01 07:51:25;;;;;;;;;;;;;;;;;;10460374;28;19925;-59
2022/10/01 07:56:28;;;;;;;;;;;;;;;;;;10462365;28;19952;-57
2022/10/01 08:01:31;;;;;;;;;;;;;;;;;;10461476;28;20442;-58
2022/10/01 08:06:33;;;;;;;;;;;;;;;;;;10458025;28;20345;-58
2022/10/01 08:11:36;;;;;;;;;;;;;;;;;;10458647;28;19928;-58
2022/10/01 08:16:39;;;;;;;;;;;;;;;;;;10460938;28;20371;-58
2022/10/01 08:21:41;;;;;;;;;;;;;;;;;;10460859;28;20450;-57
2022/10/01 08:26:44;;;;;;;;;;;;;;;;;;10460532;28;20042;-57
2022/10/01 08:31:46;;;;;;;;;;;;;;;;;;10456864;28;19931;-58
2022/10/01 08:36:49;;;;;;;;;;;;;;;;;;10460345;28;20317;-58
2022/10/01 08:41:51;;;;;;;;;;;;;;;;;;10460007;28;19982;-57
2022/10/01 08:46:53;;;;;;;;;;;;;;;;;;10456270;28;19929;-58
2022/10/01 08:51:55;;;;;;;;;;;;;;;;;;10458650;28;19929;-58
2022/10/01 08:56:57;;;;;;;;;;;;;;;;;;10459331;28;19929;-58
2022/10/01 09:01:59;;;;;;;;;;;;;;;;;;10459457;28;19925;-58
2022/10/01 09:07:01;;;;;;;;;;;;;;;;;;10459844;28;19925;-58
2022/10/01 09:12:04;;;;;;;;;;;;;;;;;;10458714;28;19925;-58
2022/10/01 09:17:06;;;;;;;;;;;;;;;;;;10459255;28;19925;-58
2022/10/01 09:22:08;;;;;;;;;;;;;;;;;;10458176;28;19925;-58
2022/10/01 09:27:10;;;;;;;;;;;;;;;;;;10458177;28;19990;-58
2022/10/01 09:32:13;;;;;;;;;;;;;;;;;;10457949;28;20376;-58
2022/10/01 09:37:17;;;;;;;;;;;;;;;;;;10457798;28;20438;-58
2022/10/01 09:42:19;;;;;;;;;;;;;;;;;;10458181;28;19924;-58
2022/10/01 09:47:21;;;;;;;;;;;;;;;;;;10457410;28;19925;-58
2022/10/01 09:52:25;;;;;;;;;;;;;;;;;;10457258;28;19924;-58
2022/10/01 09:57:28;;;;;;;;;;;;;;;;;;10457848;28;19951;-58
2022/10/01 10:02:30;;;;;;;;;;;;;;;;;;10456952;28;20383;-58
2022/10/01 10:07:33;;;;;;;;;;;;;;;;;;10457535;28;19925;-58
2022/10/01 10:12:36;;;;;;;;;;;;;;;;;;10456755;28;19928;-58
2022/10/01 10:17:38;;;;;;;;;;;;;;;;;;10456642;28;20414;-57
2022/10/01 10:22:40;;;;;;;;;;;;;;;;;;10456553;28;20331;-57
2022/10/01 10:27:42;;;;;;;;;;;;;;;;;;10457181;28;19925;-57
2022/10/01 10:32:47;;;;;;;;;;;;;;;;;;10462592;28;19925;-57
2022/10/01 10:37:49;;;;;;;;;;;;;;;;;;10465456;28;19929;-58
2022/10/01 10:42:51;;;;;;;;;;;;;;;;;;10465306;28;19975;-58
2022/10/01 10:47:53;;;;;;;;;;;;;;;;;;10464998;28;19925;-58
2022/10/01 10:52:56;;;;;;;;;;;;;;;;;;10464219;28;20343;-58
2022/10/01 10:57:58;;;;;;;;;;;;;;;;;;10447027;28;19975;-58
2022/10/01 11:03:05;;;;;;;;;;;;;;;;;;10463709;28;20379;-59
2022/10/01 11:08:07;;;;;;;;;;;;;;;;;;10464320;28;19928;-58
2022/10/01 11:13:09;;;;;;;;;;;;;;;;;;10463393;28;19924;-59
2022/10/01 11:18:11;;;;;;;;;;;;;;;;;;10461770;28;19924;-59
2022/10/01 11:23:14;;;;;;;;;;;;;;;;;;10461231;28;20300;-59
2022/10/01 11:28:16;;;;;;;;;;;;;;;;;;10460578;28;20338;-59
2022/10/01 11:33:18;;;;;;;;;;;;;;;;;;10463210;28;19924;-59
2022/10/01 11:38:20;;;;;;;;;;;;;;;;;;10462125;28;19925;-59
2022/10/01 11:43:22;;;;;;;;;;;;;;;;;;10460499;28;19929;-60
2022/10/01 11:48:24;;;;;;;;;;;;;;;;;;10460821;28;19951;-60
2022/10/01 11:53:29;;;;;;;;;;;;;;;;;;10461521;28;19928;-60
2022/10/01 11:58:50;;;;;;;;;;;;;;;;;;10455345;28;19932;-59
2022/10/01 12:03:52;;;;;;;;;;;;;;;;;;10459185;28;19928;-59
2022/10/01 12:08:55;;;;;;;;;;;;;;;;;;10461965;28;19925;-59
2022/10/01 12:13:57;;;;;;;;;;;;;;;;;;10460397;28;19929;-60
2022/10/01 12:18:59;;;;;;;;;;;;;;;;;;10459434;28;19925;-59
2022/10/01 12:24:01;;;;;;;;;;;;;;;;;;10461354;28;19975;-59
2022/10/01 12:29:04;;;;;;;;;;;;;;;;;;10460109;28;20330;-59
2022/10/01 12:34:06;;;;;;;;;;;;;;;;;;10460344;28;20284;-59
2022/10/01 12:39:08;;;;;;;;;;;;;;;;;;10457032;28;19929;-59
2022/10/01 12:44:10;;;;;;;;;;;;;;;;;;10459919;28;19924;-59
2022/10/01 12:49:12;;;;;;;;;;;;;;;;;;10460474;28;19925;-59
2022/10/01 12:54:14;;;;;;;;;;;;;;;;;;10459527;28;19925;-59
2022/10/01 12:59:16;;;;;;;;;;;;;;;;;;10459497;28;20376;-59
2022/10/01 13:04:18;;;;;;;;;;;;;;;;;;10457941;28;19924;-59
2022/10/01 13:09:20;;;;;;;;;;;;;;;;;;10458606;28;19971;-60
2022/10/01 13:14:22;;;;;;;;;;;;;;;;;;10459269;28;19929;-60
2022/10/01 13:19:24;;;;;;;;;;;;;;;;;;10471886;28;19928;-59
2022/10/01 13:24:27;;;;;;;;;;;;;;;;;;10477974;28;20034;-60
2022/10/01 13:29:29;;;;;;;;;;;;;;;;;;10457996;28;19990;-59
2022/10/01 13:34:31;;;;;;;;;;;;;;;;;;10457516;28;19979;-59
2022/10/01 13:39:33;;;;;;;;;;;;;;;;;;10456357;28;19978;-59
2022/10/01 13:44:40;;;;;;;;;;;;;;;;;;10458270;28;19925;-60
2022/10/01 13:49:44;;;;;;;;;;;;;;;;;;10457029;28;19978;-59
2022/10/01 13:54:46;;;;;;;;;;;;;;;;;;10457216;28;19925;-59
2022/10/01 13:59:48;;;;;;;;;;;;;;;;;;10456724;28;19925;-60
2022/10/01 14:04:50;;;;;;;;;;;;;;;;;;10455927;28;19929;-59
2022/10/01 14:09:52;;;;;;;;;;;;;;;;;;10457610;28;19954;-59
2022/10/01 14:20:15;;;;;;;;;;;;;;;;;;10456371;28;19925;-59
2022/10/01 14:25:19;;;;;;;;;;;;;;;;;;10456533;28;19928;-59
2022/10/01 14:30:21;;;;;;;;;;;;;;;;;;10437871;28;19925;-61
2022/10/01 14:35:24;;;;;;;;;;;;;;;;;;10455752;28;19924;-61
2022/10/01 14:40:26;;;;;;;;;;;;;;;;;;10453414;28;20019;-61
2022/10/01 14:45:28;;;;;;;;;;;;;;;;;;10456781;28;19975;-61
2022/10/01 14:50:30;;;;;;;;;;;;;;;;;;10456744;28;19925;-61
2022/10/01 14:55:32;;;;;;;;;;;;;;;;;;10455503;28;19925;-60
2022/10/01 15:00:34;;;;;;;;;;;;;;;;;;10454916;28;19929;-61
2022/10/01 15:05:36;;;;;;;;;;;;;;;;;;10455448;28;20445;-60
2022/10/01 15:10:38;;;;;;;;;;;;;;;;;;10454461;28;19929;-61
2022/10/01 15:15:40;;;;;;;;;;;;;;;;;;10455819;28;20372;-60
2022/10/01 15:20:42;;;;;;;;;;;;;;;;;;10445441;28;19925;-60
2022/10/01 15:25:44;;;;;;;;;;;;;;;;;;10462418;28;19925;-60
2022/10/01 15:30:46;;;;;;;;;;;;;;;;;;10462532;28;19925;-60
2022/10/01 15:35:48;;;;;;;;;;;;;;;;;;10463297;28;19928;-60
2022/10/01 15:40:50;;;;;;;;;;;;;;;;;;10444700;28;19958;-60
2022/10/01 15:45:52;;;;;;;;;;;;;;;;;;10462272;28;20430;-60
2022/10/01 15:50:54;;;;;;;;;;;;;;;;;;10460762;28;19924;-60
2022/10/01 15:55:56;;;;;;;;;;;;;;;;;;10462441;28;19978;-60
2022/10/01 16:00:58;;;;;;;;;;;;;;;;;;10439359;28;19974;-61
2022/10/01 16:06:01;;;;;;;;;;;;;;;;;;10444516;28;19925;-60
2022/10/01 16:11:03;;;;;;;;;;;;;;;;;;10461867;28;19925;-60
2022/10/01 16:16:05;;;;;;;;;;;;;;;;;;10459731;28;20318;-60
2022/10/01 16:21:10;;;;;;;;;;;;;;;;;;10460445;28;19925;-60
2022/10/01 16:26:12;;;;;;;;;;;;;;;;;;10460788;28;19925;-60
2022/10/01 16:31:14;;;;;;;;;;;;;;;;;;10460185;28;19928;-60
2022/10/01 16:36:18;;;;;;;;;;;;;;;;;;10459844;28;19953;-60
2022/10/01 16:41:21;;;;;;;;;;;;;;;;;;10459775;28;19928;-60
2022/10/01 16:46:23;;;;;;;;;;;;;;;;;;10460604;28;19971;-60
2022/10/01 16:51:25;;;;;;;;;;;;;;;;;;10458718;28;19928;-60
2022/10/01 16:56:27;;;;;;;;;;;;;;;;;;10458687;28;19987;-60
2022/10/01 17:01:30;;;;;;;;;;;;;;;;;;10458185;28;20368;-60
2022/10/01 17:06:33;;;;;;;;;;;;;;;;;;10459097;28;20292;-60
2022/10/01 17:11:35;;;;;;;;;;;;;;;;;;10458901;28;20023;-60
2022/10/01 17:16:37;;;;;;;;;;;;;;;;;;10458453;28;19937;-60
2022/10/01 17:21:39;;;;;;;;;;;;;;;;;;10458640;28;19933;-60
2022/10/01 17:26:41;;;;;;;;;;;;;;;;;;10458963;28;19925;-60
2022/10/01 17:31:45;;;;;;;;;;;;;;;;;;10458797;28;20024;-60
2022/10/01 17:36:47;;;;;;;;;;;;;;;;;;10455845;28;19932;-60
2022/10/01 17:41:49;;;;;;;;;;;;;;;;;;10457274;28;19929;-60
2022/10/01 17:46:51;;;;;;;;;;;;;;;;;;10458261;28;19929;-60
2022/10/01 17:51:53;;;;;;;;;;;;;;;;;;10456402;28;20372;-59
2022/10/01 17:56:55;;;;;;;;;;;;;;;;;;10456958;28;19925;-59
2022/10/01 18:01:57;;;;;;;;;;;;;;;;;;10456527;28;19971;-59
2022/10/01 18:07:05;;;;;;;;;;;;;;;;;;10457666;28;19933;-59
2022/10/01 18:12:08;;;;;;;;;;;;;;;;;;10457559;28;19925;-59
2022/10/01 18:17:10;;;;;;;;;;;;;;;;;;10481471;22;19960;-59
2022/10/01 18:22:13;;;;;;;;;;;;;;;;;;10497241;28;20379;-59
2022/10/01 18:27:15;;;;;;;;;;;;;;;;;;10502928;28;19924;-59
2022/10/01 18:32:17;;;;;;;;;;;;;;;;;;10497051;28;19924;-59
2022/10/01 18:37:19;;;;;;;;;;;;;;;;;;10498489;28;19978;-59
2022/10/01 18:42:21;;;;;;;;;;;;;;;;;;10497494;28;19929;-59
2022/10/01 18:47:23;;;;;;;;;;;;;;;;;;10498409;28;19924;-59
2022/10/01 18:52:25;;;;;;;;;;;;;;;;;;10499888;28;20440;-59
2022/10/01 18:57:27;;;;;;;;;;;;;;;;;;10505327;28;19928;-59
2022/10/01 19:02:29;;;;;;;;;;;;;;;;;;10506016;28;19924;-59
2022/10/01 19:07:31;;;;;;;;;;;;;;;;;;10504983;28;19982;-58
2022/10/01 19:12:33;;;;;;;;;;;;;;;;;;10504716;28;19969;-58
2022/10/01 19:17:35;;;;;;;;;;;;;;;;;;10504933;28;19925;-58
2022/10/01 19:22:37;;;;;;;;;;;;;;;;;;10503663;28;20291;-59
2022/10/01 19:27:40;;;;;;;;;;;;;;;;;;10504076;28;19925;-58
2022/10/01 19:32:42;;;;;;;;;;;;;;;;;;10503851;28;19924;-59
2022/10/01 19:37:45;;;;;;;;;;;;;;;;;;10502243;28;20330;-59
2022/10/01 19:42:47;;;;;;;;;;;;;;;;;;10503581;28;19978;-59
2022/10/01 19:47:50;;;;;;;;;;;;;;;;;;10502833;28;20387;-59
2022/10/01 19:52:52;;;;;;;;;;;;;;;;;;10504215;28;19974;-58
2022/10/01 19:57:54;;;;;;;;;;;;;;;;;;10502209;28;19924;-59
2022/10/01 20:02:56;;;;;;;;;;;;;;;;;;10501068;28;20440;-59
2022/10/01 20:07:59;;;;;;;;;;;;;;;;;;10503036;28;20375;-59
2022/10/01 20:13:01;;;;;;;;;;;;;;;;;;10503043;28;19928;-59
2022/10/01 20:18:03;;;;;;;;;;;;;;;;;;10476053;28;20452;-59
2022/10/01 20:23:05;;;;;;;;;;;;;;;;;;10503052;28;19978;-59
2022/10/01 20:28:08;;;;;;;;;;;;;;;;;;10502874;28;19924;-59
2022/10/01 20:33:10;;;;;;;;;;;;;;;;;;10501066;28;20020;-59
2022/10/01 20:38:12;;;;;;;;;;;;;;;;;;10500461;28;20596;-59
2022/10/01 20:43:15;;;;;;;;;;;;;;;;;;10498695;28;20363;-59
2022/10/01 20:48:18;;;;;;;;;;;;;;;;;;10500662;28;19937;-58
2022/10/01 20:53:20;;;;;;;;;;;;;;;;;;10501114;28;20326;-59
2022/10/01 20:58:23;;;;;;;;;;;;;;;;;;10500551;28;19924;-58
2022/10/01 21:03:25;;;;;;;;;;;;;;;;;;10501374;28;19931;-59
2022/10/01 21:08:27;;;;;;;;;;;;;;;;;;10500516;28;20405;-59
2022/10/01 21:13:29;;;;;;;;;;;;;;;;;;10499528;28;19970;-59
2022/10/01 21:18:31;;;;;;;;;;;;;;;;;;10498904;28;19928;-58
2022/10/01 21:23:33;;;;;;;;;;;;;;;;;;10499551;28;19929;-59
2022/10/01 21:28:35;;;;;;;;;;;;;;;;;;10499701;28;19924;-59
2022/10/01 21:33:37;;;;;;;;;;;;;;;;;;10499308;28;19924;-59
2022/10/01 21:38:39;;;;;;;;;;;;;;;;;;10496474;28;19982;-59
2022/10/01 21:43:41;;;;;;;;;;;;;;;;;;10500366;28;19985;-59
2022/10/01 21:48:43;;;;;;;;;;;;;;;;;;10498750;28;19924;-59
2022/10/01 21:53:45;;;;;;;;;;;;;;;;;;10499472;28;19977;-59
2022/10/01 21:58:47;;;;;;;;;;;;;;;;;;10497723;28;19924;-59
2022/10/01 22:03:51;;;;;;;;;;;;;;;;;;10498707;28;19928;-59
2022/10/01 22:08:53;;;;;;;;;;;;;;;;;;10499161;28;19973;-59
2022/10/01 22:13:55;;;;;;;;;;;;;;;;;;10497988;28;19924;-59
2022/10/01 22:18:57;;;;;;;;;;;;;;;;;;10496265;28;19951;-59
2022/10/01 22:23:59;;;;;;;;;;;;;;;;;;10498882;28;19958;-59
2022/10/01 22:29:01;;;;;;;;;;;;;;;;;;10497311;28;20316;-59
2022/10/01 22:34:03;;;;;;;;;;;;;;;;;;10497617;28;19970;-58
2022/10/01 22:39:05;;;;;;;;;;;;;;;;;;10496004;28;20425;-59
2022/10/01 22:44:07;;;;;;;;;;;;;;;;;;10497556;28;19928;-58
2022/10/01 22:49:09;;;;;;;;;;;;;;;;;;10498335;28;19967;-59
2022/10/01 22:54:12;;;;;;;;;;;;;;;;;;10497311;28;19929;-58
2022/10/01 22:59:14;;;;;;;;;;;;;;;;;;10497353;28;19924;-59
2022/10/01 23:04:16;;;;;;;;;;;;;;;;;;10497434;28;19951;-58
2022/10/01 23:09:18;;;;;;;;;;;;;;;;;;10498181;28;19924;-58
2022/10/01 23:14:20;;;;;;;;;;;;;;;;;;10496704;28;19925;-58
2022/10/01 23:19:24;;;;;;;;;;;;;;;;;;10495942;28;20322;-59
2022/10/01 23:24:26;;;;;;;;;;;;;;;;;;10496997;28;20053;-59
2022/10/01 23:29:28;;;;;;;;;;;;;;;;;;10497528;28;19925;-59
2022/10/01 23:34:30;;;;;;;;;;;;;;;;;;10496564;28;19975;-59
2022/10/01 23:39:32;;;;;;;;;;;;;;;;;;10499652;28;19929;-59
2022/10/01 23:44:34;;;;;;;;;;;;;;;;;;10503917;28;20375;-59
2022/10/01 23:49:36;;;;;;;;;;;;;;;;;;10504376;28;19924;-59
2022/10/01 23:54:38;;;;;;;;;;;;;;;;;;10502503;28;19928;-59
2022/10/01 23:59:40;;;;;;;;;;;;;;;;;;10501428;28;19925;-59
